ΕΜΥ, Εθνική Μετεωρολογική Υπηρεσία - Δελτία Καιρού, Προγνώσεις

ΑΕΡΟΝΑΥΤΙΛΙΑ

GREEK AIRPORTS CODES

TAF LGSA 190500Z 1906/2006 27013KT 9999 SCT020 TEMPO 1918/2006 25015G25KT BKN020=

EUROPEAN AIRPORTS CODES

LFPO 191000Z 27010KT 9999 SCT017 SCT036 08/05 Q1026 NOSIG=